Cedaredge, CO (81413)

10:21 AM MDT on August 27, 2014 (GMT -0600)
Coon Creek | Change Station
CLOSE
Current Station
Personal Weather Station
Location: Mesa, CO
Elevation: 8050 ft
Nearby Weather Stations
Active Advisory: Special Statement Active Notice: Public Information Statement

Elev 8050 ft 39.09 °N, 108.10 °W | Updated 3 minutes ago

Mostly Cloudy
Mostly Cloudy
53.1 °F
Feels Like 53.1 °F
N
6.0
Wind Variable Wind from North

Today
High -- | Low -- °F
--% Chance of Precip.
Yesterday
High -- | Low -- °F
Precip. -- in
6:36 AM 7:49 PM
Waxing Crescent, 4% visible
Pressure 30.15 in
Visibility 10.0 miles
Clouds Overcast 11000 ft
Dew Point 44 °F
Humidity 71%
Rainfall 0.11 in
Snow Depth 0 in , 0 in , 0 in
UV 2 out of 12
Pollen 6.00 out of 12
Air Quality Not available.
Flu Activity Not available.
METAR KMTJ 271553Z AUTO 00000KT 10SM OVC110 16/12 A3033 RMK AO2 SLP209 T01610122

More Conditions Fewer Conditions

Pressure 30.15 in
Visibility 10.0 miles
Clouds Overcast 11000 ft
Dew Point 44 °F
Humidity 71%
Rainfall 0.11 in
Snow Depth 0 in , 0 in , 0 in
UV 2 out of 12
Pollen 6.00 out of 12
Air Quality Not available.
Flu Activity Not available.
METAR KMTJ 271553Z AUTO 00000KT 10SM OVC110 16/12 A3033 RMK AO2 SLP209 T01610122

More Conditions Fewer Conditions

Nowcast | as of 9:16 am MDT on August 27, 2014

At 910 am MDT...Doppler radar indicated a wide band of moderate to locally heavy rain showers and a few embedded thunderstorms across northeast Mesa County moving north-northeast at 20 mph. This band of showers and thunderstorms will reach sections of the Interstate 70 corridor between Parachute and Glenwood Canyon...as well as highways 82 and 133 from Redstone to Carbondale northward.

×

10-Day Weather Forecast

Almanac

Astronomy

Aug. 27, 2014 Rise Set
Actual Time 6:36 AM MDT 7:49 PM MDT
Civil Twilight 6:08 AM MDT 8:17 PM MDT
Nautical Twilight 5:35 AM MDT 8:49 PM MDT
Astronomical Twilight 5:00 AM MDT 9:24 PM MDT
Moon 8:33 AM MDT 8:44 PM MDT
Length of Visible Light 14h 08m
Length of Day
13h 13m
Tomorrow will be 2m 24s shorter.
Waxing Crescent, 4% of the Moon is Illuminated
Today
Waxing Crescent
Sep 2
First Quarter
Sep 8
Full
Sep 15
Last Quarter
Sep 24
New

Today's Extremes

State Highs State Lows

Community

WunderPhotos

Upload Photos

1,747,724 photos uploaded!

Nearby

Snow Depth

Station Depth Elevation
Park Reservoir 0 in 9960 ft
Mesa Lakes 0 in 10000 ft
Overland Reservoir 0 in 9880 ft
McClure Pass 1 in 9500 ft
North Lost Trail 1 in 9200 ft

Earthquake Activity

City Distance Mag. Time & Date
No recent earthquake activity has been reported nearby.
Minimum magnitude displayed is 2.5.

Coastal Water Temperatures

Place Temperature
No Stations Reporting

Nearby Weather Stations